Terminal Aerodrome Forecast
Issued by NWS Dodge City, KS

Home | Current Version | Previous Version | Text Only | Print | Product List | Glossary On
Versions: 1 2 3 4 5 6 7 8 9 10 11 12 13 14 15 16 17 18 19 20 21 22 23 24 25 26 27 28 29 30 31 32 33
000
FTUS43 KDDC 150723 AAA
TAFDDC
TAF AMD
KDDC 150723Z 1507/1606 36011KT 4SM BR SKC
     FM150900 36018G28KT P6SM SKC
     FM151500 01015G25KT P6SM SKC
     FM151800 01010KT P6SM SKC
     FM152100 VRB05KT P6SM SKC
     FM160300 16009KT P6SM SKC=

USA.gov is the U.S. government's official web portal to all federal, state and local government web resources and services.